Time;durP1;ratioP1;P1;durP2;ratioP2;P2;SDS_P1;SDS_P2;PMS_P1;PMS_P2;Temp;Humidity;BMP_temperature;BMP_pressure;BME280_temperature;BME280_humidity;BME280_pressure;Samples;Min_cycle;Max_cycle;Signal;HPM_P1;HPM_P2
2022/09/01 00:02:19;;;;;;;3.02;1.42;;;;;;;12.55;58.26;101594.35;1687107;83;25065;-77
2022/09/01 00:05:06;;;;;;;5.35;1.20;;;;;;;12.54;58.35;101593.93;1682315;84;20990;-77
2022/09/01 00:07:51;;;;;;;3.27;1.20;;;;;;;12.50;58.42;101589.64;1680613;84;21569;-77
2022/09/01 00:10:36;;;;;;;3.22;1.32;;;;;;;12.45;58.52;101588.84;1676512;83;20985;-77
2022/09/01 00:13:21;;;;;;;1.92;1.30;;;;;;;12.44;58.53;101591.45;1675924;83;20954;-77
2022/09/01 00:16:06;;;;;;;3.45;1.17;;;;;;;12.34;58.52;101589.36;1683213;83;20930;-77
2022/09/01 00:18:53;;;;;;;3.70;1.70;;;;;;;12.30;58.58;101593.28;1680778;83;20977;-77
2022/09/01 00:21:42;;;;;;;2.37;1.55;;;;;;;12.25;58.65;101593.32;1680941;85;20926;-77
2022/09/01 00:24:28;;;;;;;2.15;1.30;;;;;;;12.26;58.75;101585.53;1680834;83;20953;-77
2022/09/01 00:27:13;;;;;;;3.17;1.10;;;;;;;12.29;58.77;101585.95;1677525;83;20965;-77
2022/09/01 00:29:59;;;;;;;3.77;1.40;;;;;;;12.24;58.75;101583.39;1675953;83;20942;-77
2022/09/01 00:32:45;;;;;;;2.87;1.70;;;;;;;12.22;58.81;101582.53;1683330;83;20985;-77
2022/09/01 00:35:30;;;;;;;4.05;1.72;;;;;;;12.22;58.84;101585.13;1672467;84;20938;-76
2022/09/01 00:38:15;;;;;;;2.35;1.65;;;;;;;12.22;58.90;101586.86;1669370;85;20945;-77
2022/09/01 00:41:00;;;;;;;5.45;1.62;;;;;;;12.18;58.98;101579.54;1671433;85;21388;-77
2022/09/01 00:44:01;;;;;;;1.92;1.62;;;;;;;12.20;58.97;101576.50;1679706;83;21830;-76
2022/09/01 00:46:50;;;;;;;3.37;1.67;;;;;;;12.15;58.99;101576.97;1684081;85;20953;-76
2022/09/01 00:49:39;;;;;;;2.50;1.70;;;;;;;12.11;59.09;101578.30;1676437;83;20938;-76
2022/09/01 00:52:44;;;;;;;1.52;1.40;;;;;;;12.10;59.20;101583.91;1673255;85;20958;-77
2022/09/01 00:55:32;;;;;;;3.10;1.17;;;;;;;12.11;59.23;101581.75;1681031;85;20953;-77
2022/09/01 00:58:17;;;;;;;6.00;1.87;;;;;;;12.10;59.25;101588.23;1681123;84;20977;-77
2022/09/01 01:01:05;;;;;;;4.62;1.90;;;;;;;12.08;59.28;101579.61;1682493;83;20937;-76
2022/09/01 01:03:51;;;;;;;3.00;1.60;;;;;;;12.04;59.36;101574.88;1683384;85;20946;-76
2022/09/01 01:06:36;;;;;;;3.30;1.62;;;;;;;11.97;59.39;101578.81;1687693;83;20921;-76
2022/09/01 01:09:21;;;;;;;3.62;1.87;;;;;;;11.89;59.47;101577.16;1682243;83;20918;-76
2022/09/01 01:12:10;;;;;;;2.55;1.65;;;;;;;11.88;59.55;101578.03;1694588;82;20985;-76
2022/09/01 01:14:54;;;;;;;3.47;2.20;;;;;;;11.83;59.58;101584.97;1703852;83;20977;-77
2022/09/01 01:17:40;;;;;;;1.67;1.35;;;;;;;11.81;59.62;101579.37;1700076;83;20914;-77
2022/09/01 01:23:49;;;;;;;6.00;1.62;;;;;;;11.84;59.72;101587.13;1704212;82;20968;-77
2022/09/01 01:26:34;;;;;;;2.45;1.65;;;;;;;11.86;59.72;101586.69;1702083;82;21060;-77
2022/09/01 01:29:20;;;;;;;2.65;1.20;;;;;;;11.86;59.74;101591.44;1699841;84;21575;-77
2022/09/01 01:32:11;;;;;;;1.40;1.30;;;;;;;11.81;59.73;101593.63;1670228;84;21095;-77
2022/09/01 01:34:52;;;;;;;3.10;1.47;;;;;;;11.74;59.81;101584.98;1696218;83;20937;-76
2022/09/01 01:37:37;;;;;;;4.12;1.62;;;;;;;11.71;59.89;101585.00;1704007;84;20981;-76
2022/09/01 01:40:23;;;;;;;2.83;1.25;;;;;;;11.73;59.93;101581.11;1684389;82;21052;-76
2022/09/01 01:43:14;;;;;;;2.62;1.15;;;;;;;11.69;59.94;101579.41;1695086;82;21123;-76
2022/09/01 01:46:01;;;;;;;1.75;1.10;;;;;;;11.68;60.00;101580.27;1699665;82;21095;-77
2022/09/01 01:48:46;;;;;;;1.98;1.35;;;;;;;11.65;60.04;101574.67;1699017;84;20941;-77
2022/09/01 01:51:31;;;;;;;2.62;1.32;;;;;;;11.67;60.13;101575.52;1682147;84;21028;-77
2022/09/01 01:54:18;;;;;;;1.97;1.40;;;;;;;11.65;60.10;101573.81;1694275;84;21083;-77
2022/09/01 01:57:04;;;;;;;1.77;1.27;;;;;;;11.60;60.14;101579.88;1689040;84;21115;-77
2022/09/01 01:59:49;;;;;;;3.58;1.02;;;;;;;11.59;60.20;101575.99;1684775;82;22108;-77
2022/09/01 02:02:36;;;;;;;2.80;1.25;;;;;;;11.58;60.25;101577.72;1697516;84;21108;-77
2022/09/01 02:05:25;;;;;;;2.27;1.15;;;;;;;11.59;60.33;101575.99;1694035;84;21072;-77
2022/09/01 02:08:14;;;;;;;1.80;1.47;;;;;;;11.64;60.39;101574.67;1698061;84;21091;-77
2022/09/01 02:10:58;;;;;;;1.90;1.42;;;;;;;11.60;60.30;101575.13;1688552;82;20990;-76
2022/09/01 02:13:45;;;;;;;3.00;1.20;;;;;;;11.53;60.35;101576.88;1664332;85;21791;-76
2022/09/01 02:16:32;;;;;;;4.50;1.40;;;;;;;11.52;60.44;101576.89;1674575;83;21081;-77
2022/09/01 02:19:19;;;;;;;2.47;1.45;;;;;;;11.49;60.47;101575.17;1675049;84;21059;-77
2022/09/01 02:22:04;;;;;;;2.55;1.30;;;;;;;11.46;60.53;101580.80;1676534;84;21089;-77
2022/09/01 02:24:51;;;;;;;2.37;1.30;;;;;;;11.44;60.56;101579.94;1674963;83;21210;-77
2022/09/01 02:27:38;;;;;;;2.05;1.20;;;;;;;11.42;60.58;101583.01;1676986;83;21117;-77
2022/09/01 02:30:23;;;;;;;3.50;1.52;;;;;;;11.42;60.64;101577.39;1623917;85;21724;-77
2022/09/01 02:33:08;;;;;;;2.00;1.17;;;;;;;11.40;60.66;101576.97;1621904;86;21064;-76
2022/09/01 02:35:58;;;;;;;2.55;1.52;;;;;;;11.36;60.64;101576.13;1618781;88;21100;-77
2022/09/01 02:38:44;;;;;;;4.70;1.27;;;;;;;11.32;60.67;101577.00;1625193;87;20930;-77
2022/09/01 02:41:33;;;;;;;1.15;1.00;;;;;;;11.26;60.71;101574.00;1619479;88;20930;-77
2022/09/01 02:44:20;;;;;;;1.50;1.20;;;;;;;11.23;60.72;101571.42;1624750;87;20949;-77
2022/09/01 02:47:04;;;;;;;4.12;1.42;;;;;;;11.20;60.79;101570.56;1625230;87;20922;-77
2022/09/01 02:49:51;;;;;;;1.87;1.00;;;;;;;11.15;60.82;101568.42;1677051;85;20942;-77
2022/09/01 02:52:36;;;;;;;3.83;0.80;;;;;;;11.14;60.92;101571.45;1674137;83;20973;-76
2022/09/01 02:55:21;;;;;;;2.85;1.00;;;;;;;11.12;60.83;101568.00;1677482;83;21009;-76
2022/09/01 02:58:09;;;;;;;2.50;1.12;;;;;;;11.08;60.93;101571.89;1674902;84;21081;-76
2022/09/01 03:00:56;;;;;;;3.12;1.02;;;;;;;11.05;60.97;101575.35;1671163;83;21129;-77
2022/09/01 03:03:42;;;;;;;2.52;1.57;;;;;;;11.05;61.00;101577.94;1675987;85;21069;-76
2022/09/01 03:06:30;;;;;;;1.32;1.07;;;;;;;11.02;60.99;101579.23;1671884;84;21588;-78
2022/09/01 03:09:17;;;;;;;1.35;1.05;;;;;;;10.97;61.09;101578.39;1677681;85;21474;-78
2022/09/01 03:12:06;;;;;;;1.75;0.98;;;;;;;10.97;61.12;101580.11;1689775;83;21402;-77
2022/09/01 03:14:49;;;;;;;1.55;1.20;;;;;;;10.97;61.12;101579.68;1685872;84;21017;-77
2022/09/01 03:17:35;;;;;;;2.22;1.30;;;;;;;10.95;61.09;101572.35;1683218;83;21136;-77
2022/09/01 03:20:20;;;;;;;2.87;1.27;;;;;;;10.88;61.06;101574.55;1684695;83;21077;-77
2022/09/01 03:23:07;;;;;;;3.85;1.00;;;;;;;10.87;61.20;101577.58;1682256;83;21076;-77
2022/09/01 03:25:52;;;;;;;2.17;1.12;;;;;;;10.83;61.14;101573.27;1685271;83;21124;-77
2022/09/01 03:28:38;;;;;;;1.22;1.10;;;;;;;10.79;61.27;101573.27;1666944;84;21110;-78
2022/09/01 03:31:26;;;;;;;2.27;1.20;;;;;;;10.78;61.24;101575.43;1682705;83;21064;-77
2022/09/01 03:34:11;;;;;;;1.72;1.10;;;;;;;10.75;61.29;101580.17;1679168;85;21069;-76
2022/09/01 03:36:56;;;;;;;1.25;1.15;;;;;;;10.73;61.33;101574.58;1678657;84;21065;-76
2022/09/01 03:39:41;;;;;;;3.27;1.20;;;;;;;10.66;61.26;101576.73;1679803;82;503775;-77
2022/09/01 03:42:26;;;;;;;2.25;1.10;;;;;;;10.58;61.30;101576.74;1683690;83;21120;-77
2022/09/01 03:45:15;;;;;;;2.45;1.10;;;;;;;10.53;61.36;101572.00;1685296;83;21084;-77
2022/09/01 03:48:00;;;;;;;1.67;1.10;;;;;;;10.49;61.42;101576.31;1680353;84;20981;-78
2022/09/01 03:50:46;;;;;;;1.50;1.40;;;;;;;10.49;61.41;101576.74;1687150;84;21427;-77
2022/09/01 03:53:36;;;;;;;3.25;1.72;;;;;;;10.48;61.47;101579.77;1688314;83;20973;-77
2022/09/01 03:56:26;;;;;;;2.40;2.15;;;;;;;10.47;61.44;101581.91;1681371;84;20962;-77
2022/09/01 03:59:15;;;;;;;4.58;1.92;;;;;;;10.47;61.53;101582.34;1687019;84;20914;-77
2022/09/01 04:02:01;;;;;;;1.45;1.35;;;;;;;10.49;61.52;101579.33;1684250;84;20938;-77
2022/09/01 04:04:46;;;;;;;3.87;1.60;;;;;;;10.45;61.50;101578.90;1683574;83;20949;-78
2022/09/01 04:07:31;;;;;;;3.45;1.57;;;;;;;10.44;61.59;101589.67;1684354;84;20941;-77
2022/09/01 04:10:17;;;;;;;3.58;1.50;;;;;;;10.45;61.62;101581.05;1685648;83;21548;-77
2022/09/01 04:13:03;;;;;;;1.60;1.37;;;;;;;10.47;61.63;101580.62;1687841;83;28017;-77
2022/09/01 04:15:48;;;;;;;1.57;1.47;;;;;;;10.45;61.56;101586.22;1687506;84;20937;-77
2022/09/01 04:18:33;;;;;;;2.92;1.10;;;;;;;10.38;61.61;101584.96;1686905;83;20926;-74
2022/09/01 04:21:18;;;;;;;1.47;1.30;;;;;;;10.41;61.67;101586.22;1665978;84;20974;-74
2022/09/01 04:24:04;;;;;;;1.95;1.50;;;;;;;10.41;61.64;101587.52;1685540;84;20966;-74
2022/09/01 04:26:50;;;;;;;4.47;1.35;;;;;;;10.36;61.59;101583.67;1687390;84;21446;-74
2022/09/01 04:29:35;;;;;;;1.65;1.27;;;;;;;10.32;61.63;101589.70;1671189;83;20945;-74
2022/09/01 04:32:20;;;;;;;2.67;1.65;;;;;;;10.27;61.68;101588.41;1683837;84;20966;-74
2022/09/01 04:35:07;;;;;;;3.85;1.50;;;;;;;10.27;61.77;101587.54;1686167;83;20897;-74
2022/09/01 04:37:52;;;;;;;1.60;1.30;;;;;;;10.29;61.79;101585.81;1687329;84;21052;-74
2022/09/01 04:40:39;;;;;;;2.60;1.60;;;;;;;10.28;61.81;101589.27;1675674;84;21088;-74
2022/09/01 04:43:24;;;;;;;;;;;;;;;10.31;61.89;101592.28;1680683;84;21019;-74
2022/09/01 04:46:13;;;;;;;2.80;1.30;;;;;;;10.27;62.07;101592.70;1666384;84;20193;-74
2022/09/01 04:48:56;;;;;;;;;;;;;;;10.28;61.95;101590.55;1683691;83;22239;-74
2022/09/01 04:51:45;;;;;;;5.58;1.20;;;;;;;10.33;62.26;101591.85;1675194;83;21262;-74
2022/09/01 04:54:31;;;;;;;1.42;1.17;;;;;;;10.34;61.97;101589.27;1675939;83;21092;-74
2022/09/01 04:57:16;;;;;;;2.87;1.22;;;;;;;10.38;62.00;101594.01;1686740;83;21136;-73
2022/09/01 05:00:02;;;;;;;1.77;1.37;;;;;;;10.39;62.06;101594.44;1689474;83;21040;-74
2022/09/01 05:02:54;;;;;;;1.50;1.37;;;;;;;10.41;62.10;101588.81;1692191;83;21105;-74
2022/09/01 05:05:44;;;;;;;1.42;1.02;;;;;;;10.45;62.15;101591.83;1681757;83;21104;-74
2022/09/01 05:08:33;;;;;;;2.58;1.50;;;;;;;10.46;62.15;101594.84;1681389;83;21132;-74
2022/09/01 05:11:17;;;;;;;1.80;1.27;;;;;;;10.45;62.22;101595.27;1663195;83;22328;-74
2022/09/01 05:14:03;;;;;;;2.58;1.60;;;;;;;10.52;62.33;101591.83;1675265;83;21140;-74
2022/09/01 05:16:49;;;;;;;3.33;1.45;;;;;;;10.61;62.40;101590.53;1677650;84;21136;-74
2022/09/01 05:19:38;;;;;;;1.75;1.40;;;;;;;10.77;62.60;101590.09;1680267;83;21532;-74
2022/09/01 05:22:24;;;;;;;2.02;1.45;;;;;;;11.02;62.64;101588.73;1686323;83;20957;-74
2022/09/01 05:25:12;;;;;;;1.92;1.42;;;;;;;11.27;62.72;101594.27;1681955;82;21434;-74
2022/09/01 05:27:57;;;;;;;2.30;1.65;;;;;;;11.49;62.71;101592.44;1677051;85;20949;-77
2022/09/01 05:30:42;;;;;;;2.27;1.32;;;;;;;11.68;62.80;101594.09;1681251;85;20945;-77
2022/09/01 05:33:27;;;;;;;1.90;1.50;;;;;;;11.93;62.84;101594.86;1682365;83;20961;-77
2022/09/01 05:36:18;;;;;;;4.37;1.50;;;;;;;12.18;62.95;101589.91;1682150;83;20914;-77
2022/09/01 05:39:05;;;;;;;3.95;1.60;;;;;;;12.54;63.08;101587.88;1675263;83;21116;-77
2022/09/01 05:41:51;;;;;;;1.95;1.32;;;;;;;13.03;63.16;101589.55;1670842;84;21061;-77
2022/09/01 05:44:42;;;;;;;;;;;;;;;13.52;63.24;101592.45;1642030;83;21020;-77
2022/09/01 05:47:25;;;;;;;2.58;1.35;;;;;;;13.91;63.27;101596.27;1673145;85;20238;-77
2022/09/01 05:50:11;;;;;;;3.72;1.50;;;;;;;14.12;63.17;101591.17;1678764;83;21578;-77
2022/09/01 05:52:56;;;;;;;13.88;2.22;;;;;;;14.55;63.31;101591.84;1679320;85;21128;-77
2022/09/01 05:55:45;;;;;;;13.03;2.02;;;;;;;15.05;63.28;101592.66;1681573;83;21073;-77
2022/09/01 05:58:31;;;;;;;18.15;2.30;;;;;;;15.51;63.20;101594.75;1680475;85;21577;-77
2022/09/01 06:01:23;;;;;;;12.28;2.15;;;;;;;15.99;63.22;101585.45;1670657;85;21107;-77
2022/09/01 06:04:09;;;;;;;10.15;1.80;;;;;;;16.42;63.00;101593.11;1676943;85;21148;-78
2022/09/01 06:06:55;;;;;;;6.35;2.25;;;;;;;16.77;62.98;101587.45;1672517;83;21049;-77
2022/09/01 06:09:45;;;;;;;8.95;1.57;;;;;;;17.14;62.85;101588.19;1670614;83;26585;-77
2022/09/01 06:12:30;;;;;;;6.08;1.40;;;;;;;17.60;62.84;101584.23;1676769;85;21633;-78
2022/09/01 06:15:17;;;;;;;4.25;1.50;;;;;;;18.14;62.66;101584.77;1674251;84;21516;-77
2022/09/01 06:18:01;;;;;;;;;;;;;;;18.58;62.53;101585.05;1682140;85;21076;-78
2022/09/01 06:20:48;;;;;;;2.35;1.10;;;;;;;18.96;61.75;101579.80;1679002;83;20254;-78
2022/09/01 06:23:35;;;;;;;4.37;1.35;;;;;;;19.44;62.19;101583.70;1671775;85;21065;-78
2022/09/01 06:26:27;;;;;;;3.55;1.20;;;;;;;19.96;62.01;101586.50;1677421;85;26705;-78
2022/09/01 06:29:14;;;;;;;1.57;1.25;;;;;;;20.26;61.81;101592.30;1674448;85;21564;-78
2022/09/01 06:32:01;;;;;;;3.47;1.67;;;;;;;20.72;61.92;101599.59;1673680;83;410875;-78
2022/09/01 06:34:50;;;;;;;;;;;;;;;21.32;61.60;101604.39;1685580;83;21536;-77
2022/09/01 06:37:33;;;;;;;2.37;1.45;;;;;;;21.83;60.01;101599.84;1670415;85;20223;-78
2022/09/01 06:40:18;;;;;;;2.87;1.15;;;;;;;22.28;61.25;101606.00;1673948;83;21004;-78
2022/09/01 06:43:06;;;;;;;2.72;1.20;;;;;;;22.75;61.03;101608.02;1657150;85;21081;-78
2022/09/01 06:45:53;;;;;;;3.95;1.00;;;;;;;23.13;60.57;101603.88;1675532;83;21747;-78
2022/09/01 06:48:45;;;;;;;3.52;0.95;;;;;;;23.47;60.42;101613.00;1679908;85;21072;-78
2022/09/01 06:51:28;;;;;;;1.15;0.82;;;;;;;23.81;60.33;101609.41;1667071;85;20966;-78
2022/09/01 06:54:15;;;;;;;3.08;1.20;;;;;;;24.10;60.15;101613.88;1676591;83;21009;-78
2022/09/01 06:57:02;;;;;;;1.70;1.10;;;;;;;24.55;59.93;101613.98;1679662;83;21067;-78
2022/09/01 06:59:47;;;;;;;4.28;0.88;;;;;;;25.02;59.39;101613.33;1683055;83;20915;-78
2022/09/01 07:02:32;;;;;;;1.43;1.00;;;;;;;25.51;59.40;101618.70;1676615;83;20957;-75
2022/09/01 07:05:18;;;;;;;4.95;0.98;;;;;;;26.00;59.06;101616.45;1680340;83;21886;-75
2022/09/01 07:08:06;;;;;;;5.72;0.85;;;;;;;26.51;58.87;101614.86;1684299;85;20921;-75
2022/09/01 07:10:55;;;;;;;2.52;0.90;;;;;;;26.92;58.40;101616.48;1677389;83;20930;-75
2022/09/01 07:13:38;;;;;;;3.60;0.80;;;;;;;26.98;58.03;101612.97;1685289;84;20927;-75
2022/09/01 07:16:25;;;;;;;3.85;0.88;;;;;;;26.89;57.57;101610.91;1693989;84;20979;-75
2022/09/01 07:19:13;;;;;;;2.58;0.80;;;;;;;26.95;56.83;101618.93;1686521;84;21535;-75
2022/09/01 07:21:57;;;;;;;1.35;0.90;;;;;;;27.01;56.56;101619.87;1682158;84;20940;-75
2022/09/01 07:24:44;;;;;;;1.67;0.68;;;;;;;27.08;56.24;101622.92;1697652;84;20928;-74
2022/09/01 07:27:29;;;;;;;6.00;3.10;;;;;;;26.89;55.77;101619.35;1698490;82;21849;-75
2022/09/01 07:30:16;;;;;;;3.00;1.37;;;;;;;26.79;55.37;101620.45;1694200;84;21146;-75
2022/09/01 07:33:01;;;;;;;1.37;0.65;;;;;;;26.59;54.64;101619.14;1696249;83;20983;-75
2022/09/01 07:35:46;;;;;;;2.50;0.68;;;;;;;26.34;54.28;101620.43;1690151;83;21808;-75
2022/09/01 07:38:31;;;;;;;1.30;0.50;;;;;;;26.05;53.68;101624.48;1670042;84;20976;-74
2022/09/01 07:41:16;;;;;;;1.20;0.50;;;;;;;25.92;53.15;101624.07;1683261;84;20960;-74
2022/09/01 07:44:03;;;;;;;1.67;0.85;;;;;;;25.67;52.64;101619.00;1693551;84;20958;-74
2022/09/01 07:46:50;;;;;;;0.95;0.50;;;;;;;25.54;52.66;101616.72;1693235;84;20980;-74
2022/09/01 07:49:38;;;;;;;0.68;0.50;;;;;;;25.60;52.20;101619.45;1694020;84;20947;-75
2022/09/01 07:52:24;;;;;;;0.65;0.50;;;;;;;25.69;52.07;101619.76;1695008;83;20967;-75
2022/09/01 07:55:15;;;;;;;0.47;0.33;;;;;;;25.76;51.21;101613.59;1695454;83;20947;-75
2022/09/01 07:58:00;;;;;;;0.70;0.50;;;;;;;25.78;50.01;101607.73;1695270;83;20975;-75
2022/09/01 08:00:46;;;;;;;1.15;0.42;;;;;;;25.91;50.43;101610.44;1697796;84;21475;-75
2022/09/01 08:03:30;;;;;;;;;;;;;;;26.04;50.21;101603.37;1697742;83;20971;-75
2022/09/01 08:06:19;;;;;;;1.00;0.88;;;;;;;26.29;49.43;101608.77;1690130;83;20128;-75
2022/09/01 08:09:09;;;;;;;0.45;0.33;;;;;;;26.49;50.30;101600.00;1695035;84;20968;-75
2022/09/01 08:11:54;;;;;;;1.55;0.40;;;;;;;26.71;49.97;101605.53;1683084;84;21516;-75
2022/09/01 08:14:39;;;;;;;3.10;0.50;;;;;;;26.54;49.24;101606.66;1680035;83;21474;-75
2022/09/01 08:17:24;;;;;;;2.83;0.42;;;;;;;26.63;49.48;101604.72;1678240;83;21101;-75
2022/09/01 08:20:10;;;;;;;0.55;0.40;;;;;;;26.76;49.28;101602.56;1676462;83;21627;-75
2022/09/01 08:22:55;;;;;;;5.05;0.47;;;;;;;26.94;48.97;101607.46;1673598;84;28833;-75
2022/09/01 08:25:43;;;;;;;0.73;0.50;;;;;;;27.04;48.72;101607.68;1672433;83;20981;-75
2022/09/01 08:28:28;;;;;;;2.40;0.62;;;;;;;27.03;48.38;101609.48;1681626;83;20918;-75
2022/09/01 08:31:17;;;;;;;0.90;0.53;;;;;;;27.00;48.05;101614.19;1681961;84;20981;-74
2022/09/01 08:34:04;;;;;;;2.10;0.53;;;;;;;27.01;47.62;101609.25;1664782;85;20965;-74
2022/09/01 08:36:48;;;;;;;0.82;0.50;;;;;;;27.09;47.82;101598.06;1670579;83;20938;-74
2022/09/01 08:39:33;;;;;;;0.50;0.30;;;;;;;26.83;47.59;101603.37;1677711;84;21100;-74
2022/09/01 08:42:23;;;;;;;1.47;0.40;;;;;;;26.35;47.36;101607.07;1679192;83;20997;-74
2022/09/01 08:45:26;;;;;;;1.17;0.40;;;;;;;25.82;47.02;101603.08;1668921;84;21136;-74
2022/09/01 08:48:38;;;;;;;36.33;2.52;;;;;;;25.30;46.70;101601.06;1667662;83;21065;-74
2022/09/01 08:51:52;;;;;;;0.85;0.40;;;;;;;24.78;46.40;101598.92;1675695;83;21676;-74
2022/09/01 08:54:55;;;;;;;0.82;0.30;;;;;;;24.43;46.37;101607.64;1666177;83;21124;-74
2022/09/01 08:57:44;;;;;;;0.68;0.30;;;;;;;24.13;46.05;101606.25;1673832;82;21689;-74
2022/09/01 09:00:35;;;;;;;0.30;0.30;;;;;;;23.76;45.90;101608.34;1669982;83;20921;-74
2022/09/01 09:03:34;;;;;;;0.95;0.23;;;;;;;23.37;45.71;101611.34;1678615;83;21578;-74
2022/09/01 09:06:27;;;;;;;2.65;0.40;;;;;;;23.06;45.60;101605.98;1680682;85;21427;-74
2022/09/01 09:09:12;;;;;;;0.45;0.20;;;;;;;22.77;45.59;101599.56;1672912;83;22087;-74
2022/09/01 09:12:14;;;;;;;0.93;0.40;;;;;;;22.52;45.45;101600.42;1665095;83;21566;-74
2022/09/01 09:15:17;;;;;;;0.68;0.40;;;;;;;22.27;44.74;101599.02;1679852;83;20941;-74
2022/09/01 09:18:29;;;;;;;0.30;0.20;;;;;;;22.05;45.13;101600.99;1688471;81;21779;-74
2022/09/01 09:21:18;;;;;;;0.60;0.30;;;;;;;21.97;45.10;101614.49;1680959;83;20926;-74
2022/09/01 09:24:27;;;;;;;0.88;0.30;;;;;;;21.90;45.07;101599.91;1670081;84;20976;-73
2022/09/01 09:27:32;;;;;;;0.65;0.25;;;;;;;21.86;45.00;101606.25;1678949;84;21401;-73
2022/09/01 09:30:27;;;;;;;0.60;0.30;;;;;;;21.83;44.74;101602.94;1679291;84;21001;-74
2022/09/01 09:33:35;;;;;;;2.67;0.25;;;;;;;21.67;44.75;101603.65;1681754;83;21130;-74
2022/09/01 09:36:34;;;;;;;0.23;0.15;;;;;;;21.79;44.90;101604.39;1674880;83;21148;-74
2022/09/01 09:39:19;;;;;;;0.40;0.20;;;;;;;21.92;44.80;101603.78;1678178;83;21567;-74
2022/09/01 09:42:11;;;;;;;0.40;0.40;;;;;;;21.98;44.62;101600.86;1670853;83;21077;-74
2022/09/01 09:44:57;;;;;;;1.70;0.20;;;;;;;22.03;44.83;101597.11;1670509;85;21083;-74
2022/09/01 09:47:45;;;;;;;0.33;0.23;;;;;;;22.04;44.72;101608.04;1680707;84;21028;-74
2022/09/01 09:50:36;;;;;;;0.93;0.20;;;;;;;21.99;44.74;101603.88;1676240;83;21116;-74
2022/09/01 09:53:28;;;;;;;0.50;0.25;;;;;;;22.01;44.81;101599.39;1684770;83;21544;-74
2022/09/01 09:56:23;;;;;;;3.70;0.20;;;;;;;22.01;44.73;101599.39;1674409;83;21394;-74
2022/09/01 09:59:35;;;;;;;0.57;0.23;;;;;;;21.98;44.77;101591.64;1675424;83;21735;-74
2022/09/01 10:02:29;;;;;;;0.72;0.40;;;;;;;21.98;44.70;101600.86;1676107;84;21100;-74
2022/09/01 10:05:37;;;;;;;0.33;0.20;;;;;;;22.03;44.73;101596.26;1674322;83;21124;-74
2022/09/01 10:08:47;;;;;;;0.23;0.13;;;;;;;22.06;44.69;101587.75;1674804;84;21085;-74
2022/09/01 10:11:48;;;;;;;0.57;0.37;;;;;;;22.11;44.67;101581.80;1676445;83;21109;-74
2022/09/01 10:14:41;;;;;;;1.00;0.20;;;;;;;22.20;44.49;101587.08;1678316;84;21576;-74
2022/09/01 10:17:40;;;;;;;4.90;0.30;;;;;;;22.20;44.54;101584.91;1686069;84;21124;-74
2022/09/01 10:20:27;;;;;;;0.30;0.10;;;;;;;22.16;44.58;101588.16;1674341;85;21150;-75
2022/09/01 10:23:12;;;;;;;0.15;0.10;;;;;;;22.18;44.47;101591.57;1682725;84;22254;-74
2022/09/01 10:26:08;;;;;;;18.17;1.40;;;;;;;22.09;44.30;101588.06;1673112;83;21183;-74
2022/09/01 10:29:13;;;;;;;3.70;0.23;;;;;;;22.04;44.38;101586.97;1683547;82;21108;-74
2022/09/01 10:32:00;;;;;;;1.35;0.37;;;;;;;22.11;44.28;101591.48;1690166;83;21528;-74
2022/09/01 10:34:46;;;;;;;0.20;0.20;;;;;;;22.08;43.52;101583.72;1684454;84;25165;-74
2022/09/01 10:37:33;;;;;;;1.87;0.30;;;;;;;21.97;44.26;101584.67;1680240;83;21020;-74
2022/09/01 10:40:32;;;;;;;0.10;0.10;;;;;;;21.96;44.28;101585.59;1686645;83;20996;-74
2022/09/01 10:43:41;;;;;;;0.47;0.20;;;;;;;21.90;44.03;101587.20;1670909;85;21061;-75
2022/09/01 10:46:34;;;;;;;0.93;0.40;;;;;;;21.84;44.01;101590.13;1671169;84;21121;-74
2022/09/01 10:49:27;;;;;;;4.15;0.40;;;;;;;21.80;44.21;101589.45;1663952;85;21621;-74
2022/09/01 10:52:43;;;;;;;0.28;0.25;;;;;;;21.78;44.16;101587.34;1658022;85;21086;-74
2022/09/01 10:55:47;;;;;;;0.30;0.20;;;;;;;21.83;44.16;101589.77;1652002;84;22659;-74
2022/09/01 10:59:01;;;;;;;0.42;0.20;;;;;;;21.85;44.03;101591.83;1625271;85;21635;-74
2022/09/01 11:01:51;;;;;;;0.53;0.20;;;;;;;21.87;44.12;101580.77;1651294;83;21164;-74
2022/09/01 11:04:47;;;;;;;0.45;0.15;;;;;;;21.92;44.14;101580.08;1654844;84;21082;-74
2022/09/01 11:07:34;;;;;;;4.33;0.50;;;;;;;21.93;44.07;101583.11;1655731;85;21088;-74
2022/09/01 11:10:37;;;;;;;0.57;0.23;;;;;;;21.91;44.03;101575.28;1646974;85;21669;-74
2022/09/01 11:13:42;;;;;;;0.50;0.23;;;;;;;21.96;44.08;101579.01;1651553;85;21261;-75
2022/09/01 11:16:38;;;;;;;0.40;0.30;;;;;;;21.93;44.00;101578.69;1645011;85;28394;-74
2022/09/01 11:19:41;;;;;;;0.42;0.28;;;;;;;21.98;44.08;101583.28;1643611;86;21154;-75
2022/09/01 11:22:31;;;;;;;1.17;0.30;;;;;;;21.96;43.96;101590.40;1642782;86;21162;-83
2022/09/01 11:25:40;;;;;;;0.93;0.30;;;;;;;21.93;43.94;101585.28;1641944;84;21150;-75
2022/09/01 11:28:35;;;;;;;0.33;0.20;;;;;;;21.98;43.95;101583.74;1650092;84;21744;-74
2022/09/01 11:31:28;;;;;;;1.05;0.40;;;;;;;21.99;43.92;101586.30;1674308;83;21101;-74
2022/09/01 11:34:18;;;;;;;1.47;0.30;;;;;;;21.94;43.87;101582.18;1677131;84;21065;-74
2022/09/01 11:37:09;;;;;;;1.17;0.17;;;;;;;21.86;43.87;101583.01;1675795;83;21072;-74
2022/09/01 11:39:58;;;;;;;0.20;0.10;;;;;;;21.80;43.92;101581.55;1676698;83;21045;-74
2022/09/01 11:42:44;;;;;;;1.17;0.25;;;;;;;21.82;43.91;101585.42;1676624;83;21116;-74
2022/09/01 11:45:32;;;;;;;1.95;0.20;;;;;;;21.78;43.87;101589.98;1678129;83;21109;-74
2022/09/01 11:48:17;;;;;;;0.40;0.17;;;;;;;21.82;43.89;101589.37;1662578;83;21044;-74
2022/09/01 11:51:04;;;;;;;1.27;0.30;;;;;;;21.77;43.90;101585.18;1665833;83;21052;-74
2022/09/01 11:53:50;;;;;;;;;;;;;;;21.77;43.71;101589.59;1670255;83;21088;-74
2022/09/01 11:56:35;;;;;;;0.37;0.10;;;;;;;21.72;43.86;101585.00;1673420;83;20222;-74
2022/09/01 11:59:33;;;;;;;0.25;0.20;;;;;;;21.70;43.95;101586.39;1678162;83;21113;-74
2022/09/01 12:02:26;;;;;;;0.85;0.25;;;;;;;21.73;43.97;101590.20;1677945;83;21663;-74
2022/09/01 12:05:37;;;;;;;0.70;0.25;;;;;;;21.73;43.94;101594.61;1675317;82;21457;-74
2022/09/01 12:08:22;;;;;;;0.30;0.30;;;;;;;21.73;43.97;101594.14;1674721;83;20962;-74
2022/09/01 12:11:12;;;;;;;0.25;0.25;;;;;;;21.73;43.99;101595.47;1671234;84;20974;-74
2022/09/01 12:14:11;;;;;;;2.12;0.40;;;;;;;21.73;44.03;101598.56;1664113;84;21014;-74
2022/09/01 12:17:05;;;;;;;3.35;0.30;;;;;;;21.77;44.10;101598.80;1679941;85;20978;-74
2022/09/01 12:19:50;;;;;;;0.88;0.30;;;;;;;21.78;44.10;101590.84;1682350;83;20989;-74
2022/09/01 12:22:35;;;;;;;0.33;0.30;;;;;;;21.74;44.04;101593.69;1594590;87;20956;-74
2022/09/01 12:25:24;;;;;;;1.22;0.20;;;;;;;21.70;44.14;101590.34;1623150;86;21470;-74
2022/09/01 12:28:10;;;;;;;1.35;0.30;;;;;;;21.73;44.15;101593.30;1620815;86;20963;-74
2022/09/01 12:30:55;;;;;;;1.77;0.37;;;;;;;21.74;44.19;101591.05;1626032;86;20942;-74
2022/09/01 12:33:43;;;;;;;0.35;0.23;;;;;;;21.75;44.20;101588.34;1623680;86;20983;-75
2022/09/01 12:36:36;;;;;;;2.55;0.40;;;;;;;21.73;44.19;101584.94;1503799;85;5000942;-75
2022/09/01 12:39:24;;;;;;;2.10;0.60;;;;;;;21.75;44.23;101589.66;1657784;84;21485;-74
2022/09/01 12:42:23;;;;;;;0.80;0.40;;;;;;;21.64;44.18;101583.19;1667271;84;20938;-74
2022/09/01 12:45:09;;;;;;;2.58;0.37;;;;;;;21.54;44.07;101580.13;1664734;84;20929;-74
2022/09/01 12:47:54;;;;;;;2.02;0.20;;;;;;;21.50;44.30;101578.56;1660736;84;21791;-74
2022/09/01 12:50:42;;;;;;;0.80;0.20;;;;;;;21.54;44.35;101576.18;1653971;84;20914;-74
2022/09/01 12:53:31;;;;;;;67.05;2.52;;;;;;;21.61;44.31;101568.39;1665654;84;21802;-74
2022/09/01 12:56:30;;;;;;;0.78;0.40;;;;;;;21.63;44.32;101566.55;1658965;84;21505;-74
2022/09/01 12:59:25;;;;;;;0.30;0.25;;;;;;;21.64;44.28;101566.94;1662005;84;21335;-74
2022/09/01 13:02:35;;;;;;;0.63;0.30;;;;;;;21.72;44.39;101569.20;1668669;84;21426;-74
2022/09/01 13:05:36;;;;;;;1.82;0.30;;;;;;;21.73;44.26;101571.77;1613246;86;20978;-74
2022/09/01 13:08:31;;;;;;;0.37;0.20;;;;;;;21.65;44.26;101566.02;1657056;84;20925;-74
2022/09/01 13:11:18;;;;;;;0.50;0.30;;;;;;;21.63;44.24;101559.96;1626371;86;21546;-74
2022/09/01 13:14:03;;;;;;;0.90;0.10;;;;;;;21.64;44.31;101562.98;1647343;84;20926;-74